Akron, Pennsylvania
Current Conditions -  °F | °C
As of 3:53 PM on Monday 22 Dec 2014 (Local Time) from KLNS Reporting Station
Overcast Overcast  
Wind Chill:   Ceiling: 3600
Heat Index:   Visibility: 8mi
Dew Point: -1°   Wind: 6mph
Humidity: 73%   Direction: 90°E
Pressure: 30.17"   Gusts: NA
Location:  40.16°N, 76.2°W
Report Text: KLNS 222053Z 09005KT 8SM OVC036 04/M01 A3017 RMK AO2 SLP222 T00391006 56020
Loading
Personal Weather Stations






























Interactive Weather Map New forecast layout! Learn more

10-Day Weather Forecast

Advertisements
Track Severe Weather on mobile